| time (UTC) | temp F | wind direction | speed MPH | gust MPH | rain 1hr in | rain 24hr in | rain mn in | humidity % | barometer mb |
| 20260509174304 | 64 | 336 | 1.0 | 3.0 | 0.00 | 0.00 | 0.00 | 45 | 1019.4 |
| 20260509173305 | 63 | 0 | 2.0 | 3.0 | 0.00 | 0.00 | 0.00 | 46 | 1019.5 |
| 20260509172805 | 63 | 0 | 2.0 | 3.0 | 0.00 | 0.00 | 0.00 | 46 | 1019.5 |
| 20260509172306 | 62 | 13 | 1.0 | 3.0 | 0.00 | 0.00 | 0.00 | 47 | 1019.5 |
| 20260509171304 | 62 | 0 | 2.0 | 3.0 | 0.00 | 0.00 | 0.00 | 48 | 1019.7 |
| 20260509170805 | 62 | 14 | 1.0 | 2.0 | 0.00 | 0.00 | 0.00 | 48 | 1019.7 |
| 20260509170304 | 62 | 350 | 1.0 | 2.0 | 0.00 | 0.00 | 0.00 | 49 | 1019.8 |
| 20260509165804 | 62 | 4 | 1.0 | 2.0 | 0.00 | 0.00 | 0.00 | 50 | 1020.0 |
| 20260509165306 | 61 | 338 | 1.0 | 2.0 | 0.00 | 0.00 | 0.00 | 50 | 1020.0 |
| 20260509164804 | 60 | 355 | 1.0 | 3.0 | 0.00 | 0.00 | 0.00 | 52 | 1020.1 |
| 20260509164305 | 60 | 329 | 1.0 | 2.0 | 0.00 | 0.00 | 0.00 | 52 | 1020.1 |
| 20260509163305 | 58 | 270 | 1.0 | 3.0 | 0.00 | 0.00 | 0.00 | 55 | 1020.3 |
| 20260509162804 | 58 | 11 | 2.0 | 3.0 | 0.00 | 0.00 | 0.00 | 57 | 1020.3 |
| 20260509162307 | 57 | 271 | 2.0 | 3.0 | 0.00 | 0.00 | 0.00 | 57 | 1020.3 |
| 20260509161805 | 57 | 327 | 1.0 | 2.0 | 0.00 | 0.00 | 0.00 | 58 | 1020.3 |
| 20260509161304 | 57 | 36 | 2.0 | 2.0 | 0.00 | 0.00 | 0.00 | 57 | 1020.4 |
| 20260509160804 | 57 | 0 | 1.0 | 2.0 | 0.00 | 0.00 | 0.00 | 57 | 1020.5 |
| 20260509160304 | 56 | 345 | 1.0 | 3.0 | 0.00 | 0.00 | 0.00 | 59 | 1020.5 |
| 20260509155804 | 56 | 332 | 2.0 | 5.0 | 0.00 | 0.00 | 0.00 | 59 | 1020.5 |
| 20260509155306 | 56 | 297 | 2.0 | 3.0 | 0.00 | 0.00 | 0.00 | 60 | 1020.6 |
| 20260509154804 | 55 | 282 | 5.0 | 7.0 | 0.00 | 0.00 | 0.00 | 60 | 1020.7 |
| 20260509154304 | 55 | 288 | 3.0 | 6.0 | 0.00 | 0.00 | 0.00 | 62 | 1020.7 |
| 20260509153804 | 55 | 265 | 3.0 | 6.0 | 0.00 | 0.00 | 0.00 | 62 | 1020.7 |
| 20260509153305 | 55 | 261 | 3.0 | 5.0 | 0.00 | 0.00 | 0.00 | 62 | 1020.7 |
| 20260509152804 | 54 | 299 | 1.0 | 3.0 | 0.00 | 0.00 | 0.00 | 62 | 1020.7 |
| 20260509152306 | 54 | 274 | 3.0 | 5.0 | 0.00 | 0.00 | 0.00 | 62 | 1020.6 |
| 20260509151805 | 55 | 305 | 3.0 | 3.0 | 0.00 | 0.00 | 0.00 | 61 | 1020.6 |
| 20260509151303 | 55 | 31 | 1.0 | 3.0 | 0.00 | 0.00 | 0.00 | 61 | 1020.6 |
| 20260509150804 | 55 | 56 | 1.0 | 3.0 | 0.00 | 0.00 | 0.00 | 62 | 1020.7 |
| 20260509150305 | 54 | 14 | 1.0 | 2.0 | 0.00 | 0.00 | 0.00 | 63 | 1020.6 |
| 20260509145804 | 54 | 107 | 2.0 | 3.0 | 0.00 | 0.00 | 0.00 | 63 | 1020.6 |
| 20260509145306 | 54 | 61 | 2.0 | 3.0 | 0.00 | 0.00 | 0.00 | 63 | 1020.7 |
| 20260509144804 | 54 | 342 | 2.0 | 3.0 | 0.00 | 0.00 | 0.00 | 65 | 1020.7 |
| 20260509144304 | 54 | 352 | 2.0 | 3.0 | 0.00 | 0.00 | 0.00 | 65 | 1020.7 |
| 20260509143804 | 54 | 344 | 1.0 | 2.0 | 0.00 | 0.00 | 0.00 | 65 | 1020.7 |
| 20260509143304 | 54 | 342 | 1.0 | 2.0 | 0.00 | 0.00 | 0.00 | 65 | 1020.7 |
| 20260509142804 | 54 | 333 | 1.0 | 2.0 | 0.00 | 0.00 | 0.00 | 64 | 1020.7 |
| 20260509142307 | 53 | 21 | 1.0 | 2.0 | 0.00 | 0.00 | 0.00 | 64 | 1020.7 |
| 20260509141804 | 52 | 23 | 1.0 | 2.0 | 0.00 | 0.00 | 0.00 | 65 | 1020.7 |
| 20260509141304 | 52 | 184 | 1.0 | 2.0 | 0.00 | 0.00 | 0.00 | 66 | 1020.7 |
| 20260509140804 | 51 | 179 | 1.0 | 3.0 | 0.00 | 0.00 | 0.00 | 66 | 1020.7 |
| 20260509140304 | 51 | 206 | 1.0 | 2.0 | 0.00 | 0.00 | 0.00 | 70 | 1020.7 |
| 20260509135804 | 51 | 181 | 1.0 | 2.0 | 0.00 | 0.00 | 0.00 | 70 | 1020.7 |
| 20260509135306 | 50 | 170 | 1.0 | 1.0 | 0.00 | 0.00 | 0.00 | 70 | 1020.7 |
| 20260509134804 | 51 | 260 | 1.0 | 1.0 | 0.00 | 0.00 | 0.00 | 70 | 1020.7 |
| 20260509134304 | 51 | 155 | 1.0 | 2.0 | 0.00 | 0.00 | 0.00 | 69 | 1020.7 |
| 20260509133803 | 51 | 244 | 2.0 | 8.0 | 0.00 | 0.00 | 0.00 | 71 | 1020.7 |
| 20260509132804 | 51 | 343 | 1.0 | 3.0 | 0.00 | 0.00 | 0.00 | 72 | 1020.8 |
| 20260509132306 | 51 | 153 | 1.0 | 3.0 | 0.00 | 0.00 | 0.00 | 68 | 1020.8 |
| 20260509131804 | 51 | 304 | 1.0 | 3.0 | 0.00 | 0.00 | 0.00 | 70 | 1020.7 |
| 20260509130804 | 51 | 263 | 6.0 | 10.0 | 0.00 | 0.00 | 0.00 | 69 | 1020.6 |
| 20260509130304 | 51 | 286 | 7.0 | 14.0 | 0.00 | 0.00 | 0.00 | 69 | 1020.5 |
| 20260509125804 | 51 | 266 | 7.0 | 13.0 | 0.00 | 0.00 | 0.00 | 69 | 1020.4 |
| 20260509125307 | 51 | 276 | 6.0 | 10.0 | 0.00 | 0.00 | 0.00 | 70 | 1020.3 |
| 20260509124804 | 51 | 270 | 6.0 | 9.0 | 0.00 | 0.00 | 0.00 | 69 | 1020.3 |
| 20260509124304 | 51 | 283 | 5.0 | 9.0 | 0.00 | 0.00 | 0.00 | 70 | 1020.3 |
| 20260509123804 | 51 | 306 | 5.0 | 8.0 | 0.00 | 0.00 | 0.00 | 70 | 1020.3 |
| 20260509123304 | 52 | 305 | 5.0 | 9.0 | 0.00 | 0.00 | 0.00 | 70 | 1020.2 |
| 20260509122306 | 52 | 316 | 5.0 | 9.0 | 0.00 | 0.00 | 0.00 | 70 | 1020.2 |
| 20260509121804 | 52 | 293 | 4.0 | 7.0 | 0.00 | 0.00 | 0.00 | 69 | 1020.2 |
| 20260509121304 | 52 | 320 | 3.0 | 7.0 | 0.00 | 0.00 | 0.00 | 69 | 1020.1 |
| 20260509120804 | 53 | 315 | 3.0 | 7.0 | 0.00 | 0.00 | 0.00 | 67 | 1020.1 |
| 20260509120304 | 53 | 283 | 5.0 | 7.0 | 0.00 | 0.00 | 0.00 | 66 | 1020.1 |
| 20260509115804 | 53 | 347 | 2.0 | 8.0 | 0.00 | 0.00 | 0.00 | 65 | 1020.0 |
| 20260509115307 | 54 | 237 | 6.0 | 12.0 | 0.00 | 0.00 | 0.00 | 64 | 1020.0 |
| 20260509114806 | 54 | 200 | 6.0 | 12.0 | 0.00 | 0.00 | 0.00 | 63 | 1020.0 |
| 20260509114306 | 54 | 323 | 3.0 | 8.0 | 0.00 | 0.00 | 0.00 | 64 | 1019.9 |
| 20260509113805 | 54 | 281 | 2.0 | 5.0 | 0.00 | 0.00 | 0.00 | 63 | 1019.8 |
| 20260509113305 | 54 | 272 | 5.0 | 10.0 | 0.00 | 0.00 | 0.00 | 62 | 1019.8 |
| 20260509112806 | 54 | 259 | 5.0 | 9.0 | 0.00 | 0.00 | 0.00 | 62 | 1019.8 |
| 20260509111806 | 54 | 219 | 4.0 | 6.0 | 0.00 | 0.00 | 0.00 | 62 | 1019.8 |
| 20260509111306 | 54 | 266 | 3.0 | 7.0 | 0.00 | 0.00 | 0.00 | 61 | 1019.7 |
| 20260509110806 | 55 | 253 | 5.0 | 14.0 | 0.00 | 0.00 | 0.00 | 61 | 1019.7 |
| 20260509110306 | 54 | 207 | 5.0 | 10.0 | 0.00 | 0.00 | 0.00 | 62 | 1019.7 |
| 20260509105805 | 54 | 265 | 6.0 | 12.0 | 0.00 | 0.00 | 0.00 | 61 | 1019.9 |
| 20260509104805 | 55 | 264 | 6.0 | 9.0 | 0.00 | 0.00 | 0.00 | 60 | 1019.8 |
| 20260509104305 | 55 | 227 | 5.0 | 15.0 | 0.00 | 0.00 | 0.00 | 60 | 1019.8 |
| 20260509103805 | 55 | 239 | 5.0 | 8.0 | 0.00 | 0.00 | 0.00 | 60 | 1019.8 |
| 20260509103306 | 55 | 292 | 3.0 | 8.0 | 0.00 | 0.00 | 0.00 | 58 | 1019.8 |
| 20260509101805 | 56 | 228 | 7.0 | 13.0 | 0.00 | 0.00 | 0.00 | 58 | 1019.8 |
| 20260509101305 | 56 | 270 | 6.0 | 12.0 | 0.00 | 0.00 | 0.00 | 58 | 1019.9 |
| 20260509100805 | 56 | 240 | 5.0 | 13.0 | 0.00 | 0.00 | 0.00 | 57 | 1019.9 |
| 20260509100306 | 56 | 219 | 6.0 | 12.0 | 0.00 | 0.00 | 0.00 | 57 | 1019.9 |
| 20260509095306 | 56 | 190 | 5.0 | 16.0 | 0.00 | 0.00 | 0.00 | 56 | 1019.8 |
| 20260509094806 | 56 | 274 | 9.0 | 20.0 | 0.00 | 0.00 | 0.00 | 55 | 1019.7 |
| 20260509094305 | 57 | 281 | 6.0 | 12.0 | 0.00 | 0.00 | 0.00 | 56 | 1019.7 |
| 20260509093805 | 57 | 230 | 10.0 | 17.0 | 0.00 | 0.00 | 0.00 | 54 | 1019.8 |
| 20260509093306 | 57 | 235 | 5.0 | 10.0 | 0.00 | 0.00 | 0.00 | 56 | 1019.8 |
| 20260509092806 | 57 | 301 | 6.0 | 10.0 | 0.00 | 0.00 | 0.00 | 55 | 1019.8 |
| 20260509092306 | 57 | 252 | 4.0 | 10.0 | 0.00 | 0.00 | 0.00 | 55 | 1019.8 |
| 20260509091806 | 57 | 276 | 5.0 | 13.0 | 0.00 | 0.00 | 0.00 | 56 | 1019.9 |
| 20260509091306 | 57 | 300 | 3.0 | 14.0 | 0.00 | 0.00 | 0.00 | 56 | 1020.0 |
| 20260509090305 | 57 | 246 | 3.0 | 6.0 | 0.00 | 0.00 | 0.00 | 56 | 1020.1 |
| 20260509085805 | 57 | 357 | 3.0 | 8.0 | 0.00 | 0.00 | 0.00 | 56 | 1020.1 |
| 20260509084805 | 58 | 296 | 5.0 | 15.0 | 0.00 | 0.00 | 0.00 | 54 | 1020.1 |
| 20260509084305 | 58 | 329 | 3.0 | 17.0 | 0.00 | 0.00 | 0.00 | 54 | 1020.1 |
| 20260509083805 | 58 | 197 | 3.0 | 7.0 | 0.00 | 0.00 | 0.00 | 54 | 1020.2 |
| 20260509082805 | 58 | 279 | 4.0 | 12.0 | 0.00 | 0.00 | 0.00 | 54 | 1020.3 |
| 20260509082307 | 58 | 236 | 7.0 | 17.0 | 0.00 | 0.00 | 0.00 | 53 | 1020.4 |
| 20260509081805 | 58 | 174 | 7.0 | 14.0 | 0.00 | 0.00 | 0.00 | 53 | 1020.5 |
| 20260509081305 | 58 | 191 | 3.0 | 9.0 | 0.00 | 0.00 | 0.00 | 54 | 1020.5 |
| 20260509080805 | 58 | 257 | 3.0 | 7.0 | 0.00 | 0.00 | 0.00 | 54 | 1020.5 |
| 20260509075806 | 58 | 243 | 5.0 | 13.0 | 0.00 | 0.00 | 0.00 | 53 | 1020.5 |
| 20260509075306 | 58 | 222 | 6.0 | 13.0 | 0.00 | 0.00 | 0.00 | 53 | 1020.4 |
| 20260509074805 | 58 | 213 | 5.0 | 12.0 | 0.00 | 0.00 | 0.00 | 53 | 1020.4 |
| 20260509074305 | 58 | 218 | 5.0 | 14.0 | 0.00 | 0.00 | 0.00 | 52 | 1020.5 |
| 20260509073805 | 58 | 225 | 5.0 | 10.0 | 0.00 | 0.00 | 0.00 | 52 | 1020.5 |
| 20260509072306 | 59 | 240 | 3.0 | 8.0 | 0.00 | 0.00 | 0.00 | 52 | 1020.6 |
| 20260509071805 | 59 | 249 | 5.0 | 10.0 | 0.00 | 0.00 | 0.00 | 51 | 1020.7 |
| 20260509071306 | 59 | 220 | 1.0 | 6.0 | 0.00 | 0.00 | 0.00 | 51 | 1020.7 |
| 20260509070805 | 60 | 299 | 3.0 | 8.0 | 0.00 | 0.00 | 0.00 | 50 | 1020.8 |
| 20260509070305 | 60 | 178 | 2.0 | 7.0 | 0.00 | 0.00 | 0.00 | 50 | 1020.8 |
| 20260509065805 | 60 | 257 | 2.0 | 9.0 | 0.00 | 0.00 | 0.00 | 50 | 1020.9 |
| 20260509065306 | 60 | 237 | 4.0 | 7.0 | 0.00 | 0.00 | 0.00 | 50 | 1020.9 |
| 20260509064305 | 60 | 226 | 5.0 | 9.0 | 0.00 | 0.00 | 0.00 | 50 | 1021.0 |
| 20260509063806 | 60 | 249 | 4.0 | 9.0 | 0.00 | 0.00 | 0.00 | 50 | 1021.0 |
| 20260509063306 | 60 | 209 | 3.0 | 7.0 | 0.00 | 0.00 | 0.00 | 50 | 1021.0 |
| 20260509062805 | 60 | 200 | 3.0 | 6.0 | 0.00 | 0.00 | 0.00 | 50 | 1021.0 |
| 20260509062306 | 60 | 238 | 3.0 | 5.0 | 0.00 | 0.00 | 0.00 | 50 | 1021.0 |
| 20260509061305 | 60 | 215 | 3.0 | 7.0 | 0.00 | 0.00 | 0.00 | 50 | 1021.0 |
| 20260509060805 | 60 | 253 | 3.0 | 7.0 | 0.00 | 0.00 | 0.00 | 50 | 1021.0 |
| 20260509060306 | 59 | 202 | 4.0 | 8.0 | 0.00 | 0.00 | 0.00 | 51 | 1020.9 |
| 20260509055805 | 59 | 219 | 3.0 | 8.0 | 0.00 | 0.00 | 0.00 | 51 | 1020.9 |
| 20260509055307 | 59 | 212 | 3.0 | 7.0 | 0.00 | 0.00 | 0.00 | 51 | 1020.9 |
| 20260509054805 | 59 | 215 | 2.0 | 7.0 | 0.00 | 0.00 | 0.00 | 51 | 1020.9 |
| 20260509054305 | 59 | 196 | 2.0 | 3.0 | 0.00 | 0.00 | 0.00 | 51 | 1020.9 |
| 20260509053805 | 59 | 223 | 2.0 | 7.0 | 0.00 | 0.00 | 0.00 | 51 | 1020.9 |
| 20260509053305 | 59 | 203 | 2.0 | 5.0 | 0.00 | 0.00 | 0.00 | 51 | 1020.9 |
| 20260509052805 | 59 | 219 | 2.0 | 6.0 | 0.00 | 0.00 | 0.00 | 51 | 1020.9 |
| 20260509052307 | 60 | 217 | 2.0 | 3.0 | 0.00 | 0.00 | 0.00 | 50 | 1020.8 |
| 20260509051805 | 60 | 242 | 2.0 | 6.0 | 0.00 | 0.00 | 0.00 | 49 | 1020.8 |
| 20260509051306 | 60 | 263 | 3.0 | 7.0 | 0.00 | 0.00 | 0.00 | 49 | 1020.7 |
| 20260509050805 | 60 | 101 | 3.0 | 6.0 | 0.00 | 0.00 | 0.00 | 49 | 1020.7 |
| 20260509050305 | 61 | 187 | 3.0 | 10.0 | 0.00 | 0.00 | 0.00 | 48 | 1020.5 |
| 20260509045805 | 61 | 278 | 5.0 | 13.0 | 0.00 | 0.00 | 0.00 | 48 | 1020.6 |
| 20260509045306 | 61 | 276 | 5.0 | 12.0 | 0.00 | 0.00 | 0.00 | 48 | 1020.5 |
| 20260509044305 | 61 | 264 | 7.0 | 12.0 | 0.00 | 0.00 | 0.00 | 47 | 1020.5 |
| 20260509043805 | 61 | 266 | 3.0 | 8.0 | 0.00 | 0.00 | 0.00 | 48 | 1020.4 |
| 20260509043306 | 61 | 173 | 3.0 | 9.0 | 0.00 | 0.00 | 0.00 | 47 | 1020.4 |
| 20260509042805 | 61 | 284 | 4.0 | 9.0 | 0.00 | 0.00 | 0.00 | 47 | 1020.3 |
| 20260509042307 | 61 | 308 | 5.0 | 12.0 | 0.00 | 0.00 | 0.00 | 47 | 1020.3 |
| 20260509041805 | 61 | 246 | 5.0 | 12.0 | 0.00 | 0.00 | 0.00 | 46 | 1020.3 |
| 20260509041305 | 61 | 324 | 2.0 | 8.0 | 0.00 | 0.00 | 0.00 | 46 | 1020.1 |
| 20260509040806 | 61 | 290 | 3.0 | 6.0 | 0.00 | 0.00 | 0.00 | 46 | 1020.0 |
| 20260509040306 | 61 | 332 | 5.0 | 12.0 | 0.00 | 0.00 | 0.00 | 46 | 1019.9 |
| 20260509035805 | 62 | 291 | 5.0 | 12.0 | 0.00 | 0.00 | 0.00 | 46 | 1019.9 |
| 20260509035306 | 62 | 256 | 4.0 | 12.0 | 0.00 | 0.00 | 0.00 | 46 | 1019.8 |
| 20260509034305 | 62 | 231 | 3.0 | 13.0 | 0.00 | 0.00 | 0.00 | 45 | 1019.6 |
| 20260509032806 | 62 | 234 | 6.0 | 15.0 | 0.00 | 0.00 | 0.00 | 45 | 1019.5 |
| 20260509032306 | 62 | 301 | 3.0 | 15.0 | 0.00 | 0.00 | 0.00 | 45 | 1019.4 |
| 20260509031805 | 62 | 272 | 6.0 | 15.0 | 0.00 | 0.00 | 0.00 | 44 | 1019.4 |
| 20260509031305 | 62 | 249 | 6.0 | 16.0 | 0.00 | 0.00 | 0.00 | 44 | 1019.2 |
| 20260509030306 | 62 | 280 | 8.0 | 13.0 | 0.00 | 0.00 | 0.00 | 44 | 1019.1 |
| 20260509025805 | 62 | 308 | 6.0 | 16.0 | 0.00 | 0.00 | 0.00 | 44 | 1019.0 |
| 20260509025307 | 63 | 283 | 6.0 | 12.0 | 0.00 | 0.00 | 0.00 | 44 | 1019.0 |
| 20260509024805 | 63 | 266 | 7.0 | 16.0 | 0.00 | 0.00 | 0.00 | 42 | 1018.9 |
| 20260509024306 | 63 | 293 | 8.0 | 18.0 | 0.00 | 0.00 | 0.00 | 41 | 1018.7 |
| 20260509023805 | 64 | 294 | 10.0 | 20.0 | 0.00 | 0.00 | 0.00 | 41 | 1018.8 |
| 20260509023306 | 64 | 283 | 9.0 | 18.0 | 0.00 | 0.00 | 0.00 | 41 | 1018.7 |
| 20260509022806 | 64 | 298 | 10.0 | 20.0 | 0.00 | 0.00 | 0.00 | 41 | 1018.7 |
| 20260509021805 | 64 | 309 | 10.0 | 21.0 | 0.00 | 0.00 | 0.00 | 40 | 1018.6 |
| 20260509021305 | 64 | 250 | 10.0 | 30.0 | 0.00 | 0.00 | 0.00 | 40 | 1018.7 |
| 20260509020805 | 64 | 291 | 12.0 | 23.0 | 0.00 | 0.00 | 0.00 | 40 | 1018.5 |
| 20260509020305 | 64 | 288 | 12.0 | 23.0 | 0.00 | 0.00 | 0.00 | 39 | 1018.5 |
| 20260509015306 | 65 | 275 | 12.0 | 21.0 | 0.00 | 0.00 | 0.00 | 39 | 1018.4 |
| 20260509014806 | 65 | 289 | 9.0 | 26.0 | 0.00 | 0.00 | 0.00 | 39 | 1018.5 |
| 20260509014305 | 65 | 292 | 11.0 | 24.0 | 0.00 | 0.00 | 0.00 | 39 | 1018.4 |
| 20260509013805 | 65 | 268 | 9.0 | 28.0 | 0.00 | 0.00 | 0.00 | 39 | 1018.5 |
| 20260509012805 | 65 | 274 | 14.0 | 25.0 | 0.00 | 0.00 | 0.00 | 39 | 1018.5 |
| 20260509012307 | 65 | 297 | 14.0 | 26.0 | 0.00 | 0.00 | 0.00 | 39 | 1018.3 |
| 20260509011805 | 65 | 282 | 10.0 | 23.0 | 0.00 | 0.00 | 0.00 | 39 | 1018.4 |
| 20260509011305 | 65 | 279 | 10.0 | 26.0 | 0.00 | 0.00 | 0.00 | 38 | 1018.4 |
| 20260509010805 | 65 | 287 | 9.0 | 22.0 | 0.00 | 0.00 | 0.00 | 38 | 1018.4 |
| 20260509010305 | 65 | 276 | 12.0 | 28.0 | 0.00 | 0.00 | 0.00 | 38 | 1018.4 |
| 20260509004805 | 65 | 280 | 9.0 | 17.0 | 0.00 | 0.00 | 0.00 | 38 | 1018.4 |
| 20260509004306 | 65 | 294 | 6.0 | 17.0 | 0.00 | 0.00 | 0.00 | 37 | 1018.4 |
| 20260509003806 | 65 | 270 | 11.0 | 26.0 | 0.00 | 0.00 | 0.00 | 38 | 1018.4 |
| 20260509003305 | 65 | 292 | 10.0 | 22.0 | 0.00 | 0.00 | 0.00 | 37 | 1018.4 |
| 20260509002806 | 65 | 279 | 12.0 | 24.0 | 0.00 | 0.00 | 0.00 | 38 | 1018.4 |
| 20260509002306 | 65 | 279 | 10.0 | 26.0 | 0.00 | 0.00 | 0.00 | 36 | 1018.4 |
| 20260509001805 | 65 | 274 | 11.0 | 22.0 | 0.00 | 0.00 | 0.00 | 37 | 1018.4 |
| 20260509001305 | 65 | 273 | 12.0 | 22.0 | 0.00 | 0.00 | 0.00 | 36 | 1018.4 |
| 20260509000805 | 65 | 280 | 8.0 | 26.0 | 0.00 | 0.00 | 0.00 | 36 | 1018.4 |
| 20260509000305 | 65 | 254 | 13.0 | 25.0 | 0.00 | 0.00 | 0.00 | 36 | 1018.4 |
| 20260508235805 | 65 | 268 | 11.0 | 21.0 | 0.00 | 0.00 | 0.00 | 35 | 1018.3 |
| 20260508235306 | 65 | 281 | 14.0 | 22.0 | 0.00 | 0.00 | 0.00 | 34 | 1018.2 |
| 20260508234805 | 65 | 260 | 13.0 | 26.0 | 0.00 | 0.00 | 0.00 | 35 | 1018.3 |
| 20260508233805 | 65 | 262 | 13.0 | 26.0 | 0.00 | 0.00 | 0.00 | 35 | 1018.3 |
| 20260508233305 | 65 | 277 | 18.0 | 36.0 | 0.00 | 0.00 | 0.00 | 36 | 1018.3 |
| 20260508232806 | 64 | 273 | 14.0 | 31.0 | 0.00 | 0.00 | 0.00 | 34 | 1018.3 |
| 20260508231805 | 64 | 278 | 16.0 | 32.0 | 0.00 | 0.00 | 0.00 | 36 | 1018.3 |
| 20260508231305 | 65 | 279 | 14.0 | 29.0 | 0.00 | 0.00 | 0.00 | 34 | 1018.3 |
| 20260508230805 | 65 | 274 | 14.0 | 29.0 | 0.00 | 0.00 | 0.00 | 32 | 1018.4 |
| 20260508230305 | 65 | 268 | 16.0 | 35.0 | 0.00 | 0.00 | 0.00 | 34 | 1018.3 |
| 20260508225805 | 64 | 292 | 13.0 | 28.0 | 0.00 | 0.00 | 0.00 | 34 | 1018.3 |
| 20260508225307 | 64 | 261 | 16.0 | 28.0 | 0.00 | 0.00 | 0.00 | 36 | 1018.3 |
| 20260508224805 | 65 | 274 | 13.0 | 25.0 | 0.00 | 0.00 | 0.00 | 36 | 1018.3 |
| 20260508224305 | 65 | 297 | 12.0 | 28.0 | 0.00 | 0.00 | 0.00 | 33 | 1018.3 |
| 20260508223805 | 65 | 284 | 16.0 | 25.0 | 0.00 | 0.00 | 0.00 | 36 | 1018.3 |
| 20260508223306 | 64 | 284 | 17.0 | 30.0 | 0.00 | 0.00 | 0.00 | 36 | 1018.1 |
| 20260508222805 | 64 | 256 | 14.0 | 28.0 | 0.00 | 0.00 | 0.00 | 34 | 1018.4 |
| 20260508222306 | 64 | 280 | 13.0 | 24.0 | 0.00 | 0.00 | 0.00 | 36 | 1018.6 |
| 20260508221805 | 64 | 279 | 14.0 | 23.0 | 0.00 | 0.00 | 0.00 | 38 | 1018.5 |
| 20260508221305 | 64 | 267 | 12.0 | 24.0 | 0.00 | 0.00 | 0.00 | 36 | 1018.6 |
| 20260508220805 | 64 | 297 | 12.0 | 29.0 | 0.00 | 0.00 | 0.00 | 36 | 1018.6 |
| 20260508220305 | 64 | 284 | 10.0 | 29.0 | 0.00 | 0.00 | 0.00 | 38 | 1018.5 |
| 20260508215805 | 64 | 267 | 14.0 | 25.0 | 0.00 | 0.00 | 0.00 | 37 | 1018.5 |
| 20260508214305 | 64 | 302 | 9.0 | 23.0 | 0.00 | 0.00 | 0.00 | 36 | 1018.4 |
| 20260508213305 | 63 | 278 | 12.0 | 22.0 | 0.00 | 0.00 | 0.00 | 38 | 1018.6 |
| 20260508212805 | 63 | 268 | 11.0 | 23.0 | 0.00 | 0.00 | 0.00 | 36 | 1018.5 |
| 20260508211805 | 62 | 281 | 12.0 | 22.0 | 0.00 | 0.00 | 0.00 | 38 | 1018.6 |
| 20260508211305 | 62 | 269 | 13.0 | 22.0 | 0.00 | 0.00 | 0.00 | 40 | 1018.7 |
| 20260508210805 | 62 | 268 | 12.0 | 21.0 | 0.00 | 0.00 | 0.00 | 39 | 1018.7 |
| 20260508210305 | 62 | 271 | 11.0 | 25.0 | 0.00 | 0.00 | 0.00 | 39 | 1018.7 |
| 20260508205805 | 62 | 273 | 11.0 | 25.0 | 0.00 | 0.00 | 0.00 | 41 | 1018.7 |
| 20260508205306 | 62 | 263 | 13.0 | 25.0 | 0.00 | 0.00 | 0.00 | 40 | 1018.7 |
| 20260508204305 | 62 | 282 | 14.0 | 23.0 | 0.00 | 0.00 | 0.00 | 40 | 1018.6 |
| 20260508203805 | 61 | 267 | 11.0 | 31.0 | 0.00 | 0.00 | 0.00 | 40 | 1018.7 |
| 20260508203305 | 61 | 262 | 13.0 | 24.0 | 0.00 | 0.00 | 0.00 | 41 | 1018.7 |
| 20260508202805 | 61 | 272 | 15.0 | 24.0 | 0.00 | 0.00 | 0.00 | 41 | 1018.5 |
| 20260508202307 | 61 | 302 | 10.0 | 24.0 | 0.00 | 0.00 | 0.00 | 41 | 1018.5 |
| 20260508201805 | 60 | 276 | 16.0 | 23.0 | 0.00 | 0.00 | 0.00 | 43 | 1018.6 |
| 20260508201305 | 60 | 264 | 12.0 | 29.0 | 0.00 | 0.00 | 0.00 | 42 | 1018.5 |
| 20260508200805 | 60 | 278 | 15.0 | 31.0 | 0.00 | 0.00 | 0.00 | 43 | 1018.6 |
| 20260508200305 | 60 | 278 | 16.0 | 32.0 | 0.00 | 0.00 | 0.00 | 44 | 1018.7 |
| 20260508195806 | 60 | 279 | 16.0 | 26.0 | 0.00 | 0.00 | 0.00 | 42 | 1018.7 |
| 20260508195306 | 60 | 280 | 15.0 | 32.0 | 0.00 | 0.00 | 0.00 | 43 | 1018.7 |
| 20260508194805 | 59 | 277 | 14.0 | 25.0 | 0.00 | 0.00 | 0.00 | 43 | 1018.5 |
| 20260508194305 | 59 | 270 | 17.0 | 30.0 | 0.00 | 0.00 | 0.00 | 44 | 1018.6 |
| 20260508193305 | 59 | 275 | 9.0 | 22.0 | 0.00 | 0.00 | 0.00 | 44 | 1018.5 |
| 20260508191805 | 58 | 282 | 12.0 | 25.0 | 0.00 | 0.00 | 0.00 | 45 | 1018.5 |
| 20260508191305 | 59 | 273 | 15.0 | 29.0 | 0.00 | 0.00 | 0.00 | 46 | 1018.4 |
| 20260508190805 | 58 | 259 | 10.0 | 23.0 | 0.00 | 0.00 | 0.00 | 45 | 1018.5 |
| 20260508190305 | 58 | 243 | 14.0 | 23.0 | 0.00 | 0.00 | 0.00 | 46 | 1018.5 |
| 20260508185805 | 58 | 266 | 13.0 | 24.0 | 0.00 | 0.00 | 0.00 | 45 | 1018.6 |
| 20260508185306 | 58 | 275 | 14.0 | 32.0 | 0.00 | 0.00 | 0.00 | 47 | 1018.6 |
| 20260508184804 | 57 | 257 | 14.0 | 24.0 | 0.00 | 0.00 | 0.00 | 47 | 1018.6 |
| 20260508184305 | 57 | 267 | 14.0 | 25.0 | 0.00 | 0.00 | 0.00 | 47 | 1018.6 |
| 20260508183804 | 57 | 273 | 12.0 | 24.0 | 0.00 | 0.00 | 0.00 | 46 | 1018.7 |
| 20260508183305 | 57 | 256 | 12.0 | 23.0 | 0.00 | 0.00 | 0.00 | 46 | 1018.9 |
| 20260508182805 | 57 | 275 | 12.0 | 29.0 | 0.00 | 0.00 | 0.00 | 47 | 1018.9 |
| 20260508182306 | 56 | 283 | 13.0 | 24.0 | 0.00 | 0.00 | 0.00 | 47 | 1018.8 |
| 20260508181805 | 56 | 282 | 16.0 | 26.0 | 0.00 | 0.00 | 0.00 | 48 | 1018.7 |
| 20260508181304 | 55 | 257 | 13.0 | 29.0 | 0.00 | 0.00 | 0.00 | 49 | 1018.5 |
| 20260508175804 | 54 | 277 | 9.0 | 23.0 | 0.00 | 0.00 | 0.00 | 48 | 1018.5 |
| 20260508175306 | 54 | 263 | 10.0 | 22.0 | 0.00 | 0.00 | 0.00 | 48 | 1018.5 |
| 20260508174805 | 54 | 270 | 12.0 | 28.0 | 0.00 | 0.00 | 0.00 | 48 | 1018.5 |